Cascade, Virginia
Current Conditions -  °F | °C
As of 2:55 AM on Wednesday 26 Nov 2014 (Local Time) from KSIF Reporting Station
Moderate Rain Moderate Rain  
Wind Chill: 41°   Ceiling: 3600
Heat Index: 44°   Visibility: 7mi
Dew Point: 42°   Wind: 5mph
Humidity: 93%   Direction: 20°NNE
Pressure: 30.01"   Gusts: NA
Location:  36.57°N, 79.67°W
Report Text: KSIF 260755Z AUTO 02004KT 7SM RA BKN036 OVC046 07/06 A3001 RMK AO2 P0001 T00660055
Loading
Personal Weather Stations






























Interactive Weather Map New forecast layout! Learn more

10-Day Weather Forecast

Advertisements
Track Severe Weather on mobile